sensor_id;sensor_type;location;lat;lon;timestamp;pressure;altitude;pressure_sealevel;temperature;humidity
20630;BME280;17386;43.846;25.950;2023-06-22T00:02:16;101455.50;;;24.38;95.06
20630;BME280;17386;43.846;25.950;2023-06-22T00:04:42;101474.38;;;24.40;95.43
20630;BME280;17386;43.846;25.950;2023-06-22T00:07:09;101469.19;;;24.37;95.73
20630;BME280;17386;43.846;25.950;2023-06-22T00:09:34;101471.28;;;24.33;96.31
20630;BME280;17386;43.846;25.950;2023-06-22T00:12:01;101469.53;;;24.32;96.64
20630;BME280;17386;43.846;25.950;2023-06-22T00:14:26;101460.66;;;24.30;96.50
20630;BME280;17386;43.846;25.950;2023-06-22T00:16:52;101457.19;;;24.28;96.85
20630;BME280;17386;43.846;25.950;2023-06-22T00:19:24;101458.19;;;24.27;96.92
20630;BME280;17386;43.846;25.950;2023-06-22T00:21:52;101456.59;;;24.24;96.92
20630;BME280;17386;43.846;25.950;2023-06-22T00:24:21;101450.91;;;24.27;97.13
20630;BME280;17386;43.846;25.950;2023-06-22T00:26:49;101452.63;;;24.28;96.94
20630;BME280;17386;43.846;25.950;2023-06-22T00:29:15;101447.94;;;24.31;97.35
20630;BME280;17386;43.846;25.950;2023-06-22T00:31:40;101441.28;;;24.23;97.28
20630;BME280;17386;43.846;25.950;2023-06-22T00:34:06;101453.25;;;24.32;97.49
20630;BME280;17386;43.846;25.950;2023-06-22T00:36:33;101445.97;;;24.33;96.83
20630;BME280;17386;43.846;25.950;2023-06-22T00:38:59;101450.75;;;24.29;97.34
20630;BME280;17386;43.846;25.950;2023-06-22T00:41:24;101457.94;;;24.30;97.13
20630;BME280;17386;43.846;25.950;2023-06-22T00:43:54;101455.81;;;24.22;97.35
20630;BME280;17386;43.846;25.950;2023-06-22T00:46:19;101465.38;;;24.17;97.89
20630;BME280;17386;43.846;25.950;2023-06-22T00:48:45;101455.50;;;24.16;99.77
20630;BME280;17386;43.846;25.950;2023-06-22T00:51:11;101451.03;;;24.15;100.00
20630;BME280;17386;43.846;25.950;2023-06-22T00:53:36;101460.16;;;24.14;100.00
20630;BME280;17386;43.846;25.950;2023-06-22T00:56:03;101455.00;;;24.11;100.00
20630;BME280;17386;43.846;25.950;2023-06-22T00:58:29;101458.72;;;24.10;99.41
20630;BME280;17386;43.846;25.950;2023-06-22T01:00:55;101439.44;;;24.01;99.53
20630;BME280;17386;43.846;25.950;2023-06-22T01:03:20;101459.56;;;24.10;99.29
20630;BME280;17386;43.846;25.950;2023-06-22T01:05:46;101456.00;;;24.10;99.39
20630;BME280;17386;43.846;25.950;2023-06-22T01:08:40;101457.94;;;24.08;99.97
20630;BME280;17386;43.846;25.950;2023-06-22T01:11:16;101450.19;;;24.03;100.00
20630;BME280;17386;43.846;25.950;2023-06-22T01:13:56;101443.91;;;24.02;100.00
20630;BME280;17386;43.846;25.950;2023-06-22T01:16:23;101453.91;;;24.02;100.00
20630;BME280;17386;43.846;25.950;2023-06-22T01:18:52;101449.84;;;23.96;100.00
20630;BME280;17386;43.846;25.950;2023-06-22T01:21:21;101447.47;;;23.92;100.00
20630;BME280;17386;43.846;25.950;2023-06-22T01:23:56;101446.75;;;23.90;100.00
20630;BME280;17386;43.846;25.950;2023-06-22T01:28:54;101453.53;;;23.84;100.00
20630;BME280;17386;43.846;25.950;2023-06-22T01:31:24;101458.31;;;23.81;100.00
20630;BME280;17386;43.846;25.950;2023-06-22T01:33:59;101461.28;;;23.78;100.00
20630;BME280;17386;43.846;25.950;2023-06-22T01:36:26;101453.66;;;23.71;100.00
20630;BME280;17386;43.846;25.950;2023-06-22T01:38:53;101451.19;;;23.68;100.00
20630;BME280;17386;43.846;25.950;2023-06-22T01:41:25;101465.63;;;23.69;100.00
20630;BME280;17386;43.846;25.950;2023-06-22T01:43:52;101464.13;;;23.65;100.00
20630;BME280;17386;43.846;25.950;2023-06-22T01:46:18;101461.72;;;23.60;100.00
20630;BME280;17386;43.846;25.950;2023-06-22T01:48:47;101463.69;;;23.58;100.00
20630;BME280;17386;43.846;25.950;2023-06-22T01:51:13;101478.13;;;23.59;100.00
20630;BME280;17386;43.846;25.950;2023-06-22T01:53:39;101471.09;;;23.56;100.00
20630;BME280;17386;43.846;25.950;2023-06-22T01:56:05;101478.25;;;23.57;100.00
20630;BME280;17386;43.846;25.950;2023-06-22T01:58:31;101488.00;;;23.60;100.00
20630;BME280;17386;43.846;25.950;2023-06-22T02:01:11;101482.81;;;23.57;100.00
20630;BME280;17386;43.846;25.950;2023-06-22T02:03:48;101471.97;;;23.57;100.00
20630;BME280;17386;43.846;25.950;2023-06-22T02:06:25;101480.97;;;23.57;100.00
20630;BME280;17386;43.846;25.950;2023-06-22T02:08:56;101476.50;;;23.45;100.00
20630;BME280;17386;43.846;25.950;2023-06-22T02:11:22;101493.78;;;23.55;100.00
20630;BME280;17386;43.846;25.950;2023-06-22T02:13:51;101492.94;;;23.55;100.00
20630;BME280;17386;43.846;25.950;2023-06-22T02:16:17;101489.34;;;23.54;100.00
20630;BME280;17386;43.846;25.950;2023-06-22T02:18:47;101501.81;;;23.57;100.00
20630;BME280;17386;43.846;25.950;2023-06-22T02:21:16;101506.38;;;23.56;100.00
20630;BME280;17386;43.846;25.950;2023-06-22T02:23:41;101506.72;;;23.52;100.00
20630;BME280;17386;43.846;25.950;2023-06-22T02:26:07;101500.78;;;23.46;100.00
20630;BME280;17386;43.846;25.950;2023-06-22T02:28:33;101495.59;;;23.43;100.00
20630;BME280;17386;43.846;25.950;2023-06-22T02:30:58;101506.97;;;23.48;100.00
20630;BME280;17386;43.846;25.950;2023-06-22T02:33:23;101511.16;;;23.53;100.00
20630;BME280;17386;43.846;25.950;2023-06-22T02:35:49;101512.25;;;23.50;100.00
20630;BME280;17386;43.846;25.950;2023-06-22T02:38:15;101515.97;;;23.49;100.00
20630;BME280;17386;43.846;25.950;2023-06-22T02:40:40;101516.31;;;23.44;100.00
20630;BME280;17386;43.846;25.950;2023-06-22T02:43:06;101525.44;;;23.43;100.00
20630;BME280;17386;43.846;25.950;2023-06-22T02:45:31;101528.50;;;23.39;100.00
20630;BME280;17386;43.846;25.950;2023-06-22T02:47:57;101529.00;;;23.44;100.00
20630;BME280;17386;43.846;25.950;2023-06-22T02:50:22;101523.84;;;23.41;100.00
20630;BME280;17386;43.846;25.950;2023-06-22T02:52:48;101538.34;;;23.40;100.00
20630;BME280;17386;43.846;25.950;2023-06-22T02:55:13;101528.75;;;23.36;100.00
20630;BME280;17386;43.846;25.950;2023-06-22T02:57:39;101539.47;;;23.37;100.00
20630;BME280;17386;43.846;25.950;2023-06-22T03:00:10;101546.72;;;23.37;100.00
20630;BME280;17386;43.846;25.950;2023-06-22T03:02:45;101544.88;;;23.37;100.00
20630;BME280;17386;43.846;25.950;2023-06-22T03:05:11;101549.44;;;23.37;100.00
20630;BME280;17386;43.846;25.950;2023-06-22T03:07:42;101547.59;;;23.37;100.00
20630;BME280;17386;43.846;25.950;2023-06-22T03:10:09;101552.91;;;23.39;100.00
20630;BME280;17386;43.846;25.950;2023-06-22T03:12:35;101544.16;;;23.35;100.00
20630;BME280;17386;43.846;25.950;2023-06-22T03:15:00;101543.78;;;23.40;100.00
20630;BME280;17386;43.846;25.950;2023-06-22T03:17:26;101547.25;;;23.42;100.00
20630;BME280;17386;43.846;25.950;2023-06-22T03:19:51;101545.41;;;23.42;100.00
20630;BME280;17386;43.846;25.950;2023-06-22T03:22:17;101549.19;;;23.40;100.00
20630;BME280;17386;43.846;25.950;2023-06-22T03:24:42;101544.66;;;23.40;100.00
20630;BME280;17386;43.846;25.950;2023-06-22T03:27:08;101544.66;;;23.40;100.00
20630;BME280;17386;43.846;25.950;2023-06-22T03:29:33;101546.13;;;23.44;100.00
20630;BME280;17386;43.846;25.950;2023-06-22T03:31:59;101539.97;;;23.42;100.00
20630;BME280;17386;43.846;25.950;2023-06-22T03:34:24;101541.56;;;23.45;100.00
20630;BME280;17386;43.846;25.950;2023-06-22T03:36:50;101542.34;;;23.47;100.00
20630;BME280;17386;43.846;25.950;2023-06-22T03:39:15;101536.03;;;23.46;100.00
20630;BME280;17386;43.846;25.950;2023-06-22T03:41:41;101533.22;;;23.48;100.00
20630;BME280;17386;43.846;25.950;2023-06-22T03:44:06;101536.16;;;23.45;100.00
20630;BME280;17386;43.846;25.950;2023-06-22T03:46:37;101528.88;;;23.45;100.00
20630;BME280;17386;43.846;25.950;2023-06-22T03:49:02;101542.97;;;23.51;100.00
20630;BME280;17386;43.846;25.950;2023-06-22T03:51:28;101537.88;;;23.46;100.00
20630;BME280;17386;43.846;25.950;2023-06-22T03:53:53;101539.38;;;23.50;100.00
20630;BME280;17386;43.846;25.950;2023-06-22T03:56:19;101541.97;;;23.52;100.00
20630;BME280;17386;43.846;25.950;2023-06-22T03:58:46;101534.34;;;23.57;100.00
20630;BME280;17386;43.846;25.950;2023-06-22T04:01:11;101541.31;;;23.61;100.00
20630;BME280;17386;43.846;25.950;2023-06-22T04:03:38;101536.75;;;23.61;100.00
20630;BME280;17386;43.846;25.950;2023-06-22T04:06:03;101545.63;;;23.63;100.00
20630;BME280;17386;43.846;25.950;2023-06-22T04:08:29;101542.56;;;23.68;100.00
20630;BME280;17386;43.846;25.950;2023-06-22T04:10:55;101546.13;;;23.68;100.00
20630;BME280;17386;43.846;25.950;2023-06-22T04:13:21;101538.00;;;23.68;100.00
20630;BME280;17386;43.846;25.950;2023-06-22T04:15:47;101541.69;;;23.79;100.00
20630;BME280;17386;43.846;25.950;2023-06-22T04:18:12;101545.06;;;23.82;100.00
20630;BME280;17386;43.846;25.950;2023-06-22T04:20:38;101550.94;;;23.87;100.00
20630;BME280;17386;43.846;25.950;2023-06-22T04:23:04;101547.75;;;23.93;100.00
20630;BME280;17386;43.846;25.950;2023-06-22T04:25:29;101543.56;;;24.00;99.95
20630;BME280;17386;43.846;25.950;2023-06-22T04:27:55;101544.94;;;24.06;99.44
20630;BME280;17386;43.846;25.950;2023-06-22T04:30:20;101554.69;;;24.09;99.05
20630;BME280;17386;43.846;25.950;2023-06-22T04:32:46;101558.03;;;24.12;98.95
20630;BME280;17386;43.846;25.950;2023-06-22T04:35:23;101562.84;;;24.20;98.44
20630;BME280;17386;43.846;25.950;2023-06-22T04:37:48;101566.91;;;24.25;97.99
20630;BME280;17386;43.846;25.950;2023-06-22T04:40:15;101571.13;;;24.29;97.10
20630;BME280;17386;43.846;25.950;2023-06-22T04:42:40;101580.53;;;24.37;95.78
20630;BME280;17386;43.846;25.950;2023-06-22T04:45:06;101573.13;;;24.39;95.54
20630;BME280;17386;43.846;25.950;2023-06-22T04:47:31;101583.22;;;24.48;95.35
20630;BME280;17386;43.846;25.950;2023-06-22T04:49:57;101578.31;;;24.53;94.93
20630;BME280;17386;43.846;25.950;2023-06-22T04:52:22;101590.41;;;24.60;94.69
20630;BME280;17386;43.846;25.950;2023-06-22T04:54:48;101583.59;;;24.66;94.50
20630;BME280;17386;43.846;25.950;2023-06-22T04:57:15;101582.47;;;24.68;93.69
20630;BME280;17386;43.846;25.950;2023-06-22T04:59:41;101581.88;;;24.65;93.69
20630;BME280;17386;43.846;25.950;2023-06-22T05:02:07;101590.84;;;24.76;93.16
20630;BME280;17386;43.846;25.950;2023-06-22T05:04:33;101582.34;;;24.81;92.97
20630;BME280;17386;43.846;25.950;2023-06-22T05:07:01;101566.28;;;24.78;92.67
20630;BME280;17386;43.846;25.950;2023-06-22T05:09:28;101577.75;;;24.93;92.65
20630;BME280;17386;43.846;25.950;2023-06-22T05:11:53;101581.31;;;25.04;92.24
20630;BME280;17386;43.846;25.950;2023-06-22T05:14:19;101585.13;;;25.13;92.01
20630;BME280;17386;43.846;25.950;2023-06-22T05:16:45;101580.06;;;25.20;91.71
20630;BME280;17386;43.846;25.950;2023-06-22T05:19:11;101573.19;;;25.25;91.11
20630;BME280;17386;43.846;25.950;2023-06-22T05:21:37;101574.44;;;25.32;90.90
20630;BME280;17386;43.846;25.950;2023-06-22T05:24:04;101576.03;;;25.35;89.66
20630;BME280;17386;43.846;25.950;2023-06-22T05:26:31;101588.84;;;25.44;88.99
20630;BME280;17386;43.846;25.950;2023-06-22T05:28:56;101592.91;;;25.50;89.42
20630;BME280;17386;43.846;25.950;2023-06-22T05:31:22;101589.03;;;25.52;88.75
20630;BME280;17386;43.846;25.950;2023-06-22T05:33:50;101585.28;;;25.64;88.24
20630;BME280;17386;43.846;25.950;2023-06-22T05:36:16;101589.19;;;25.72;85.88
20630;BME280;17386;43.846;25.950;2023-06-22T05:38:43;101593.75;;;25.82;84.78
20630;BME280;17386;43.846;25.950;2023-06-22T05:41:09;101587.50;;;25.91;83.98
20630;BME280;17386;43.846;25.950;2023-06-22T05:43:34;101589.06;;;25.94;82.72
20630;BME280;17386;43.846;25.950;2023-06-22T05:46:00;101589.16;;;26.04;81.94
20630;BME280;17386;43.846;25.950;2023-06-22T05:48:26;101590.63;;;26.08;81.31
20630;BME280;17386;43.846;25.950;2023-06-22T05:50:52;101593.38;;;26.17;80.54
20630;BME280;17386;43.846;25.950;2023-06-22T05:53:18;101585.69;;;26.23;79.02
20630;BME280;17386;43.846;25.950;2023-06-22T05:55:43;101579.56;;;26.30;77.88
20630;BME280;17386;43.846;25.950;2023-06-22T05:58:09;101584.91;;;26.41;77.29
20630;BME280;17386;43.846;25.950;2023-06-22T06:00:35;101580.38;;;26.52;76.95
20630;BME280;17386;43.846;25.950;2023-06-22T06:03:00;101578.97;;;26.57;76.34
20630;BME280;17386;43.846;25.950;2023-06-22T06:05:32;101581.72;;;26.67;76.73
20630;BME280;17386;43.846;25.950;2023-06-22T06:07:59;101575.25;;;26.68;73.97
20630;BME280;17386;43.846;25.950;2023-06-22T06:10:25;101591.38;;;26.81;73.42
20630;BME280;17386;43.846;25.950;2023-06-22T06:12:51;101582.50;;;26.88;72.93
20630;BME280;17386;43.846;25.950;2023-06-22T06:15:17;101587.97;;;26.98;72.53
20630;BME280;17386;43.846;25.950;2023-06-22T06:17:49;101582.56;;;27.08;72.85
20630;BME280;17386;43.846;25.950;2023-06-22T06:20:18;101580.28;;;27.13;72.41
20630;BME280;17386;43.846;25.950;2023-06-22T06:22:44;101584.31;;;27.18;72.09
20630;BME280;17386;43.846;25.950;2023-06-22T06:25:09;101585.31;;;27.27;71.20
20630;BME280;17386;43.846;25.950;2023-06-22T06:27:35;101591.91;;;27.34;71.06
20630;BME280;17386;43.846;25.950;2023-06-22T06:30:01;101579.44;;;27.41;71.20
20630;BME280;17386;43.846;25.950;2023-06-22T06:32:27;101584.16;;;27.49;71.02
20630;BME280;17386;43.846;25.950;2023-06-22T06:34:52;101591.63;;;27.57;70.78
20630;BME280;17386;43.846;25.950;2023-06-22T06:37:17;101582.72;;;27.64;69.84
20630;BME280;17386;43.846;25.950;2023-06-22T06:39:44;101592.66;;;27.75;69.33
20630;BME280;17386;43.846;25.950;2023-06-22T06:42:09;101590.91;;;27.84;68.13
20630;BME280;17386;43.846;25.950;2023-06-22T06:44:36;101594.63;;;27.92;68.21
20630;BME280;17386;43.846;25.950;2023-06-22T06:47:03;101600.50;;;27.97;68.26
20630;BME280;17386;43.846;25.950;2023-06-22T06:49:29;101587.13;;;28.04;66.63
20630;BME280;17386;43.846;25.950;2023-06-22T06:51:54;101583.81;;;28.10;66.55
20630;BME280;17386;43.846;25.950;2023-06-22T06:54:21;101587.66;;;28.17;64.76
20630;BME280;17386;43.846;25.950;2023-06-22T06:56:46;101589.09;;;28.21;64.47
20630;BME280;17386;43.846;25.950;2023-06-22T06:59:13;101590.97;;;28.30;64.17
20630;BME280;17386;43.846;25.950;2023-06-22T07:01:39;101590.22;;;28.38;63.52
20630;BME280;17386;43.846;25.950;2023-06-22T07:04:04;101582.97;;;28.47;62.94
20630;BME280;17386;43.846;25.950;2023-06-22T07:06:30;101588.69;;;28.53;62.78
20630;BME280;17386;43.846;25.950;2023-06-22T07:08:57;101588.69;;;28.53;61.96
20630;BME280;17386;43.846;25.950;2023-06-22T07:11:22;101592.69;;;28.59;60.61
20630;BME280;17386;43.846;25.950;2023-06-22T07:13:48;101602.63;;;28.60;60.48
20630;BME280;17386;43.846;25.950;2023-06-22T07:16:13;101594.41;;;28.60;59.49
20630;BME280;17386;43.846;25.950;2023-06-22T07:18:41;101600.63;;;28.62;59.95
20630;BME280;17386;43.846;25.950;2023-06-22T07:21:07;101583.19;;;28.63;59.81
20630;BME280;17386;43.846;25.950;2023-06-22T07:23:33;101590.72;;;28.79;58.37
20630;BME280;17386;43.846;25.950;2023-06-22T07:25:58;101585.91;;;28.91;58.33
20630;BME280;17386;43.846;25.950;2023-06-22T07:28:27;101592.38;;;28.99;58.40
20630;BME280;17386;43.846;25.950;2023-06-22T07:30:53;101557.47;;;28.83;57.78
20630;BME280;17386;43.846;25.950;2023-06-22T07:33:18;101584.25;;;29.07;57.07
20630;BME280;17386;43.846;25.950;2023-06-22T07:35:44;101587.38;;;29.12;56.86
20630;BME280;17386;43.846;25.950;2023-06-22T07:38:10;101592.31;;;29.27;56.03
20630;BME280;17386;43.846;25.950;2023-06-22T07:40:36;101594.94;;;29.36;54.64
20630;BME280;17386;43.846;25.950;2023-06-22T07:43:02;101586.97;;;29.43;54.38
20630;BME280;17386;43.846;25.950;2023-06-22T07:45:29;101589.84;;;29.51;54.99
20630;BME280;17386;43.846;25.950;2023-06-22T07:47:54;101582.38;;;29.61;54.73
20630;BME280;17386;43.846;25.950;2023-06-22T07:50:20;101585.81;;;29.63;54.63
20630;BME280;17386;43.846;25.950;2023-06-22T07:52:45;101591.28;;;29.63;54.13
20630;BME280;17386;43.846;25.950;2023-06-22T07:55:12;101592.66;;;29.59;53.70
20630;BME280;17386;43.846;25.950;2023-06-22T07:57:38;101578.63;;;29.45;53.81
20630;BME280;17386;43.846;25.950;2023-06-22T08:00:05;101598.25;;;29.58;53.08
20630;BME280;17386;43.846;25.950;2023-06-22T08:02:41;101600.59;;;29.70;53.18
20630;BME280;17386;43.846;25.950;2023-06-22T08:05:07;101596.84;;;29.72;51.91
20630;BME280;17386;43.846;25.950;2023-06-22T08:07:35;101584.94;;;29.81;51.99
20630;BME280;17386;43.846;25.950;2023-06-22T08:10:02;101584.66;;;29.92;52.73
20630;BME280;17386;43.846;25.950;2023-06-22T08:12:27;101597.41;;;30.01;52.71
20630;BME280;17386;43.846;25.950;2023-06-22T08:14:53;101592.16;;;30.08;52.43
20630;BME280;17386;43.846;25.950;2023-06-22T08:17:18;101589.66;;;30.14;51.42
20630;BME280;17386;43.846;25.950;2023-06-22T08:19:44;101591.41;;;30.23;51.00
20630;BME280;17386;43.846;25.950;2023-06-22T08:22:12;101596.09;;;30.31;50.86
20630;BME280;17386;43.846;25.950;2023-06-22T08:24:37;101594.19;;;30.32;50.16
20630;BME280;17386;43.846;25.950;2023-06-22T08:27:03;101590.78;;;30.30;50.20
20630;BME280;17386;43.846;25.950;2023-06-22T08:29:28;101586.69;;;30.34;50.83
20630;BME280;17386;43.846;25.950;2023-06-22T08:31:54;101595.91;;;30.33;50.79
20630;BME280;17386;43.846;25.950;2023-06-22T08:34:19;101588.63;;;30.41;51.16
20630;BME280;17386;43.846;25.950;2023-06-22T08:36:47;101583.00;;;30.51;51.70
20630;BME280;17386;43.846;25.950;2023-06-22T08:39:18;101582.22;;;30.67;51.64
20630;BME280;17386;43.846;25.950;2023-06-22T08:41:43;101592.03;;;30.77;51.26
20630;BME280;17386;43.846;25.950;2023-06-22T08:44:10;101593.06;;;30.76;51.22
20630;BME280;17386;43.846;25.950;2023-06-22T08:46:35;101576.94;;;30.73;49.43
20630;BME280;17386;43.846;25.950;2023-06-22T08:49:01;101588.28;;;30.87;49.71
20630;BME280;17386;43.846;25.950;2023-06-22T08:51:26;101579.41;;;30.93;49.43
20630;BME280;17386;43.846;25.950;2023-06-22T08:53:52;101584.91;;;31.01;49.43
20630;BME280;17386;43.846;25.950;2023-06-22T08:56:17;101572.56;;;30.97;48.57
20630;BME280;17386;43.846;25.950;2023-06-22T08:58:44;101573.41;;;30.97;48.76
20630;BME280;17386;43.846;25.950;2023-06-22T09:01:09;101568.31;;;31.11;48.87
20630;BME280;17386;43.846;25.950;2023-06-22T09:03:34;101579.28;;;31.19;48.93
20630;BME280;17386;43.846;25.950;2023-06-22T09:06:02;101567.84;;;31.23;49.16
20630;BME280;17386;43.846;25.950;2023-06-22T09:08:27;101586.72;;;31.35;48.48
20630;BME280;17386;43.846;25.950;2023-06-22T09:10:53;101579.34;;;31.43;48.51
20630;BME280;17386;43.846;25.950;2023-06-22T09:13:18;101580.03;;;31.37;48.14
20630;BME280;17386;43.846;25.950;2023-06-22T09:15:44;101574.88;;;31.42;48.41
20630;BME280;17386;43.846;25.950;2023-06-22T09:18:13;101571.63;;;31.47;46.84
20630;BME280;17386;43.846;25.950;2023-06-22T09:20:38;101573.88;;;31.43;46.68
20630;BME280;17386;43.846;25.950;2023-06-22T09:23:04;101574.19;;;31.32;45.71
20630;BME280;17386;43.846;25.950;2023-06-22T09:25:29;101577.13;;;31.30;45.15
20630;BME280;17386;43.846;25.950;2023-06-22T09:27:55;101575.69;;;31.18;45.15
20630;BME280;17386;43.846;25.950;2023-06-22T09:30:22;101565.22;;;31.22;45.65
20630;BME280;17386;43.846;25.950;2023-06-22T09:32:47;101570.22;;;31.35;45.68
20630;BME280;17386;43.846;25.950;2023-06-22T09:35:13;101562.34;;;31.40;45.95
20630;BME280;17386;43.846;25.950;2023-06-22T09:37:39;101560.81;;;31.45;45.81
20630;BME280;17386;43.846;25.950;2023-06-22T09:40:06;101561.16;;;31.50;46.50
20630;BME280;17386;43.846;25.950;2023-06-22T09:42:36;101556.16;;;31.62;45.68
20630;BME280;17386;43.846;25.950;2023-06-22T09:45:02;101557.72;;;31.65;44.93
20630;BME280;17386;43.846;25.950;2023-06-22T09:47:29;101552.22;;;31.65;44.15
20630;BME280;17386;43.846;25.950;2023-06-22T09:49:54;101557.03;;;31.71;44.00
20630;BME280;17386;43.846;25.950;2023-06-22T09:52:21;101565.09;;;31.89;43.83
20630;BME280;17386;43.846;25.950;2023-06-22T09:54:46;101547.56;;;32.06;42.74
20630;BME280;17386;43.846;25.950;2023-06-22T09:57:12;101551.44;;;32.28;42.00
20630;BME280;17386;43.846;25.950;2023-06-22T09:59:38;101542.81;;;32.47;41.56
20630;BME280;17386;43.846;25.950;2023-06-22T10:02:05;101542.75;;;32.55;41.74
20630;BME280;17386;43.846;25.950;2023-06-22T10:04:34;101543.22;;;32.67;41.29
20630;BME280;17386;43.846;25.950;2023-06-22T10:07:00;101547.25;;;32.79;41.38
20630;BME280;17386;43.846;25.950;2023-06-22T10:09:26;101548.38;;;33.01;41.16
20630;BME280;17386;43.846;25.950;2023-06-22T10:11:51;101559.75;;;33.21;40.75
20630;BME280;17386;43.846;25.950;2023-06-22T10:14:17;101555.47;;;33.64;39.40
20630;BME280;17386;43.846;25.950;2023-06-22T10:16:42;101534.94;;;34.05;38.44
20630;BME280;17386;43.846;25.950;2023-06-22T10:19:08;101542.47;;;34.76;37.40
20630;BME280;17386;43.846;25.950;2023-06-22T10:21:33;101538.16;;;35.46;35.86
20630;BME280;17386;43.846;25.950;2023-06-22T10:23:59;101535.91;;;36.12;34.62
20630;BME280;17386;43.846;25.950;2023-06-22T10:26:34;101543.56;;;36.45;33.46
20630;BME280;17386;43.846;25.950;2023-06-22T10:29:00;101538.88;;;36.93;32.96
20630;BME280;17386;43.846;25.950;2023-06-22T10:31:26;101528.94;;;37.39;32.53
20630;BME280;17386;43.846;25.950;2023-06-22T10:33:53;101524.00;;;37.94;31.41
20630;BME280;17386;43.846;25.950;2023-06-22T10:36:19;101516.25;;;38.29;30.97
20630;BME280;17386;43.846;25.950;2023-06-22T10:38:45;101520.41;;;38.65;30.20
20630;BME280;17386;43.846;25.950;2023-06-22T10:41:10;101520.84;;;38.55;29.87
20630;BME280;17386;43.846;25.950;2023-06-22T10:43:36;101506.19;;;38.86;30.04
20630;BME280;17386;43.846;25.950;2023-06-22T10:46:01;101509.44;;;39.15;29.67
20630;BME280;17386;43.846;25.950;2023-06-22T10:48:27;101511.13;;;39.47;28.85
20630;BME280;17386;43.846;25.950;2023-06-22T10:50:52;101513.75;;;39.67;28.74
20630;BME280;17386;43.846;25.950;2023-06-22T10:53:18;101500.38;;;39.94;28.60
20630;BME280;17386;43.846;25.950;2023-06-22T10:55:44;101501.63;;;39.30;28.73
20630;BME280;17386;43.846;25.950;2023-06-22T10:58:09;101497.53;;;39.57;28.78
20630;BME280;17386;43.846;25.950;2023-06-22T11:00:35;101495.53;;;39.89;28.14
20630;BME280;17386;43.846;25.950;2023-06-22T11:03:00;101490.78;;;39.72;27.82
20630;BME280;17386;43.846;25.950;2023-06-22T11:05:25;101498.00;;;39.98;27.92
20630;BME280;17386;43.846;25.950;2023-06-22T11:07:51;101503.13;;;40.19;27.34
20630;BME280;17386;43.846;25.950;2023-06-22T11:10:16;101503.13;;;40.37;26.69
20630;BME280;17386;43.846;25.950;2023-06-22T11:12:42;59141.97;;;-143.98;100.00
20630;BME280;17386;43.846;25.950;2023-06-22T11:15:08;59141.97;;;-143.98;100.00
20630;BME280;17386;43.846;25.950;2023-06-22T11:17:34;59141.97;;;-143.98;100.00
20630;BME280;17386;43.846;25.950;2023-06-22T11:19:59;59141.97;;;-143.98;100.00
20630;BME280;17386;43.846;25.950;2023-06-22T11:22:25;101491.50;;;40.40;26.26
20630;BME280;17386;43.846;25.950;2023-06-22T11:24:51;101488.47;;;39.69;27.20
20630;BME280;17386;43.846;25.950;2023-06-22T11:27:16;101490.28;;;39.81;27.55
20630;BME280;17386;43.846;25.950;2023-06-22T11:29:42;101493.25;;;39.61;27.47
20630;BME280;17386;43.846;25.950;2023-06-22T11:32:07;101483.50;;;39.46;27.94
20630;BME280;17386;43.846;25.950;2023-06-22T11:34:33;101480.16;;;39.12;28.23
20630;BME280;17386;43.846;25.950;2023-06-22T11:36:58;101487.69;;;38.73;28.72
20630;BME280;17386;43.846;25.950;2023-06-22T11:39:24;101480.75;;;37.60;29.88
20630;BME280;17386;43.846;25.950;2023-06-22T11:41:49;101483.31;;;37.21;30.93
20630;BME280;17386;43.846;25.950;2023-06-22T11:44:14;101476.81;;;36.75;31.71
20630;BME280;17386;43.846;25.950;2023-06-22T11:46:40;101473.94;;;36.41;31.90
20630;BME280;17386;43.846;25.950;2023-06-22T11:49:05;101476.94;;;35.71;32.84
20630;BME280;17386;43.846;25.950;2023-06-22T11:51:31;101483.56;;;35.27;33.80
20630;BME280;17386;43.846;25.950;2023-06-22T11:53:57;101464.66;;;35.02;34.38
20630;BME280;17386;43.846;25.950;2023-06-22T11:56:22;101470.78;;;34.83;35.24
20630;BME280;17386;43.846;25.950;2023-06-22T11:58:47;101467.16;;;34.61;35.60
20630;BME280;17386;43.846;25.950;2023-06-22T12:04:35;101457.34;;;34.08;36.51
20630;BME280;17386;43.846;25.950;2023-06-22T12:07:00;101460.22;;;33.99;36.39
20630;BME280;17386;43.846;25.950;2023-06-22T12:09:26;101469.03;;;33.95;36.45
20630;BME280;17386;43.846;25.950;2023-06-22T12:11:51;101470.63;;;33.60;36.42
20630;BME280;17386;43.846;25.950;2023-06-22T12:14:17;101462.16;;;33.61;36.93
20630;BME280;17386;43.846;25.950;2023-06-22T12:16:42;101453.88;;;33.61;37.41
20630;BME280;17386;43.846;25.950;2023-06-22T12:19:09;101460.16;;;33.55;38.52
20630;BME280;17386;43.846;25.950;2023-06-22T12:21:37;101450.38;;;33.53;38.42
20630;BME280;17386;43.846;25.950;2023-06-22T12:24:03;101453.56;;;33.41;38.38
20630;BME280;17386;43.846;25.950;2023-06-22T12:26:28;101449.06;;;33.26;38.08
20630;BME280;17386;43.846;25.950;2023-06-22T12:28:53;101454.00;;;33.30;38.49
20630;BME280;17386;43.846;25.950;2023-06-22T12:31:19;101442.06;;;33.38;38.38
20630;BME280;17386;43.846;25.950;2023-06-22T12:33:44;101435.19;;;33.19;38.24
20630;BME280;17386;43.846;25.950;2023-06-22T12:36:10;101431.09;;;33.15;38.81
20630;BME280;17386;43.846;25.950;2023-06-22T12:38:35;101437.47;;;33.15;38.76
20630;BME280;17386;43.846;25.950;2023-06-22T12:41:01;101431.19;;;33.21;38.73